Time;durP1;ratioP1;P1;durP2;ratioP2;P2;SDS_P1;SDS_P2;PMS_P1;PMS_P2;Temp;Humidity;BMP_temperature;BMP_pressure;BME280_temperature;BME280_humidity;BME280_pressure;Samples;Min_cycle;Max_cycle;Signal;HPM_P1;HPM_P2
2021/01/15 00:01:51;;;;;;;7.53;3.55;;;;;;;1.60;48.83;102450.69;5027167;28;20049;-71
2021/01/15 00:04:16;;;;;;;9.40;3.53;;;;;;;1.59;48.93;102451.50;5020070;28;20373;-71
2021/01/15 00:06:41;;;;;;;7.95;3.50;;;;;;;1.62;48.87;102452.44;5024948;28;20591;-71
2021/01/15 00:09:07;;;;;;;7.85;3.70;;;;;;;1.71;48.79;102451.78;5023708;28;20049;-71
2021/01/15 00:11:33;;;;;;;7.75;3.75;;;;;;;1.76;48.63;102445.00;5004505;28;20026;-71
2021/01/15 00:14:00;;;;;;;8.05;3.42;;;;;;;1.66;48.93;102453.38;5028295;28;20052;-71
2021/01/15 00:16:31;;;;;;;6.28;3.15;;;;;;;1.66;48.84;102448.22;5038396;28;20036;-71
2021/01/15 00:18:58;;;;;;;10.32;4.50;;;;;;;1.62;48.91;102452.44;5020270;28;20083;-71
2021/01/15 00:21:26;;;;;;;8.55;4.38;;;;;;;1.56;49.27;102446.28;5034979;28;20049;-71
2021/01/15 00:23:54;;;;;;;7.53;4.07;;;;;;;1.65;49.08;102446.50;5021013;28;20973;-71
2021/01/15 00:26:23;;;;;;;10.13;4.50;;;;;;;1.61;49.04;102452.41;5019814;28;20135;-71
2021/01/15 00:28:49;;;;;;;8.23;3.88;;;;;;;1.51;49.12;102441.88;5025719;28;20042;-71
2021/01/15 00:31:15;;;;;;;9.25;3.97;;;;;;;1.60;49.26;102445.53;5027781;28;20021;-71
2021/01/15 00:33:41;;;;;;;6.07;3.60;;;;;;;1.58;49.05;102449.78;5018452;28;20056;-71
2021/01/15 00:36:08;;;;;;;6.57;4.03;;;;;;;1.66;49.01;102450.78;5025204;28;20030;-73
2021/01/15 00:38:34;;;;;;;8.50;4.10;;;;;;;1.43;49.68;102456.28;5006298;28;20047;-71
2021/01/15 00:41:07;;;;;;;7.65;4.47;;;;;;;1.54;49.19;102458.25;5008265;28;20034;-71
2021/01/15 00:43:34;;;;;;;8.57;4.28;;;;;;;1.43;49.27;102461.44;5020628;28;20033;-70
2021/01/15 00:45:59;;;;;;;8.88;4.00;;;;;;;1.33;49.91;102449.16;5023710;28;20044;-71
2021/01/15 00:48:25;;;;;;;9.52;5.32;;;;;;;1.34;49.63;102452.59;5024209;28;20462;-71
2021/01/15 00:50:51;;;;;;;7.70;3.97;;;;;;;1.32;49.73;102458.56;5018536;28;20092;-71
2021/01/15 00:53:17;;;;;;;10.70;4.57;;;;;;;1.28;49.79;102456.78;5014807;28;20028;-71
2021/01/15 00:55:44;;;;;;;7.78;3.97;;;;;;;1.04;49.89;102462.19;5000923;28;20095;-71
2021/01/15 00:58:13;;;;;;;8.13;3.92;;;;;;;1.26;49.65;102463.59;5038863;28;20398;-71
2021/01/15 01:00:40;;;;;;;10.57;4.85;;;;;;;1.34;49.55;102460.34;5024854;28;20124;-71
2021/01/15 01:03:15;;;;;;;12.93;4.70;;;;;;;1.44;49.54;102468.34;5014586;28;20037;-72
2021/01/15 01:05:41;;;;;;;11.27;4.25;;;;;;;1.54;49.07;102464.28;5017403;28;20037;-71
2021/01/15 01:08:06;;;;;;;7.80;4.40;;;;;;;1.60;49.02;102459.28;5021289;28;20033;-72
2021/01/15 01:10:32;;;;;;;11.02;4.75;;;;;;;1.62;48.68;102465.34;5021256;28;20029;-71
2021/01/15 01:12:57;;;;;;;9.77;4.10;;;;;;;1.60;49.00;102463.56;5022050;28;20368;-71
2021/01/15 01:15:23;;;;;;;10.65;4.40;;;;;;;1.66;48.66;102466.25;5022850;28;20072;-71
2021/01/15 01:17:48;;;;;;;12.40;4.82;;;;;;;1.61;48.59;102466.16;5023974;28;20487;-71
2021/01/15 01:20:14;;;;;;;10.27;4.47;;;;;;;1.53;48.88;102467.72;5025639;28;20075;-71
2021/01/15 01:22:40;;;;;;;9.18;5.32;;;;;;;1.55;49.09;102466.03;5025496;28;20037;-71
2021/01/15 01:25:07;;;;;;;10.73;4.68;;;;;;;1.40;49.09;102461.38;5008469;28;20029;-71
2021/01/15 01:27:33;;;;;;;10.68;5.47;;;;;;;1.44;49.32;102463.22;5021997;28;20045;-71
2021/01/15 01:29:58;;;;;;;6.63;4.25;;;;;;;1.56;48.70;102462.59;5019904;28;20034;-71
2021/01/15 01:32:24;;;;;;;9.52;4.60;;;;;;;1.52;48.88;102465.94;5042931;28;20044;-71
2021/01/15 01:34:49;;;;;;;9.18;4.90;;;;;;;1.57;48.97;102468.63;5004475;28;20061;-72
2021/01/15 01:37:15;;;;;;;8.18;4.30;;;;;;;1.57;49.02;102472.06;5021536;28;20388;-71
2021/01/15 01:39:40;;;;;;;9.50;5.53;;;;;;;1.42;49.41;102482.03;5007467;28;20487;-71
2021/01/15 01:42:06;;;;;;;10.70;4.60;;;;;;;1.56;48.99;102479.78;5037834;28;20029;-71
2021/01/15 01:44:31;;;;;;;11.82;4.93;;;;;;;1.42;48.95;102480.34;5021823;28;20029;-71
2021/01/15 01:46:57;;;;;;;13.98;4.22;;;;;;;1.19;49.90;102484.88;5023994;28;20030;-71
2021/01/15 01:49:23;;;;;;;9.48;4.28;;;;;;;1.23;49.77;102483.25;5018786;28;20057;-71
2021/01/15 01:51:50;;;;;;;11.32;4.45;;;;;;;1.09;50.09;102488.94;5020050;28;20045;-71
2021/01/15 01:54:16;;;;;;;8.07;3.78;;;;;;;1.23;49.80;102494.41;5020213;28;20104;-72
2021/01/15 01:56:42;;;;;;;10.52;4.57;;;;;;;1.05;50.36;102499.97;5019752;28;20395;-71
2021/01/15 01:59:11;;;;;;;12.75;4.55;;;;;;;0.94;50.89;102503.13;5014772;28;20025;-72
2021/01/15 02:01:37;;;;;;;13.80;5.78;;;;;;;0.90;51.17;102494.44;5034474;28;20034;-71
2021/01/15 02:04:04;;;;;;;13.95;5.50;;;;;;;0.86;51.17;102497.78;5019445;28;20041;-71
2021/01/15 02:06:34;;;;;;;9.80;5.30;;;;;;;0.96;51.27;102498.88;5036896;28;20056;-71
2021/01/15 02:09:03;;;;;;;11.65;5.43;;;;;;;1.02;51.14;102494.75;5016102;28;20033;-71
2021/01/15 02:12:06;;;;;;;11.32;5.00;;;;;;;1.02;51.05;102502.50;5019567;28;20028;-71
2021/01/15 02:14:35;;;;;;;9.48;4.43;;;;;;;1.03;51.05;102496.50;5023193;28;20063;-71
2021/01/15 02:17:03;;;;;;;13.57;5.38;;;;;;;1.13;50.81;102496.72;5019769;28;20048;-71
2021/01/15 02:19:37;;;;;;;14.88;4.38;;;;;;;1.19;50.76;102502.03;5024406;28;20041;-71
2021/01/15 02:22:28;;;;;;;7.95;4.25;;;;;;;1.19;50.40;102495.16;5019488;28;20727;-71
2021/01/15 02:25:36;;;;;;;11.27;4.47;;;;;;;1.29;50.06;102493.72;5023006;28;20391;-71
2021/01/15 02:28:14;;;;;;;14.25;4.97;;;;;;;1.26;49.97;102494.53;5018660;28;20709;-71
2021/01/15 02:30:39;;;;;;;14.70;6.55;;;;;;;1.24;50.22;102501.34;5019666;28;20031;-71
2021/01/15 02:33:14;;;;;;;12.57;5.78;;;;;;;1.17;50.60;102504.59;5019519;28;20540;-71
2021/01/15 02:35:50;;;;;;;10.63;5.82;;;;;;;1.27;50.21;102503.09;5016241;28;20037;-71
2021/01/15 02:38:46;;;;;;;12.70;5.43;;;;;;;1.23;50.12;102498.72;5024158;28;20037;-71
2021/01/15 02:41:27;;;;;;;12.50;5.03;;;;;;;1.24;50.27;102503.03;5011985;28;20126;-71
2021/01/15 02:44:00;;;;;;;6.83;4.47;;;;;;;1.18;50.57;102506.31;5023708;28;20041;-71
2021/01/15 02:46:51;;;;;;;10.18;3.78;;;;;;;1.11;50.79;102504.44;5009939;28;20524;-71
2021/01/15 02:49:17;;;;;;;10.40;4.88;;;;;;;1.05;50.90;102509.41;5024224;28;20801;-71
2021/01/15 02:51:44;;;;;;;13.85;4.97;;;;;;;1.14;50.88;102508.78;5022038;28;20431;-71
2021/01/15 02:54:10;;;;;;;12.40;5.43;;;;;;;1.20;50.29;102508.94;5023712;28;20026;-71
2021/01/15 02:56:36;;;;;;;13.82;4.88;;;;;;;1.18;50.34;102506.31;5023871;28;20099;-71
2021/01/15 02:59:03;;;;;;;8.15;5.00;;;;;;;1.03;50.40;102505.94;5018051;28;20040;-71
2021/01/15 03:01:31;;;;;;;10.85;4.38;;;;;;;1.05;50.31;102510.28;5015976;28;20041;-71
2021/01/15 03:04:05;;;;;;;7.10;3.65;;;;;;;1.13;50.11;102512.16;5015554;28;20084;-73
2021/01/15 03:06:44;;;;;;;7.45;4.05;;;;;;;1.03;50.27;102514.50;5031534;28;20041;-71
2021/01/15 03:09:10;;;;;;;9.88;3.55;;;;;;;1.06;49.96;102521.44;5027047;28;20033;-72
2021/01/15 03:11:38;;;;;;;11.25;4.05;;;;;;;1.09;49.78;102517.25;5002574;28;20688;-71
2021/01/15 03:14:07;;;;;;;8.18;3.92;;;;;;;1.14;49.63;102509.66;5024627;28;20021;-73
2021/01/15 03:16:35;;;;;;;10.18;3.95;;;;;;;1.15;49.34;102523.38;5017724;28;20110;-71
2021/01/15 03:19:01;;;;;;;7.60;3.80;;;;;;;1.11;49.81;102525.91;5023738;28;20483;-71
2021/01/15 03:21:28;;;;;;;8.77;3.72;;;;;;;0.92;50.01;102528.81;5020605;28;20034;-71
2021/01/15 03:24:00;;;;;;;9.35;3.80;;;;;;;0.44;51.66;102532.66;5026954;28;20090;-72
2021/01/15 03:26:26;;;;;;;9.43;4.10;;;;;;;0.78;51.37;102531.03;5018762;28;20041;-73
2021/01/15 03:28:52;;;;;;;11.18;4.43;;;;;;;0.75;51.23;102524.91;5025104;28;20046;-73
2021/01/15 03:31:17;;;;;;;10.43;4.60;;;;;;;0.69;51.23;102529.06;5024068;28;20021;-70
2021/01/15 03:33:43;;;;;;;9.18;4.70;;;;;;;0.66;51.59;102531.56;5022891;28;20048;-71
2021/01/15 03:36:08;;;;;;;10.30;4.50;;;;;;;0.69;51.51;102531.63;5004248;28;20032;-71
2021/01/15 03:38:34;;;;;;;8.00;3.70;;;;;;;0.75;51.64;102535.19;5021585;28;20449;-71
2021/01/15 03:41:00;;;;;;;8.38;4.13;;;;;;;0.65;51.82;102534.94;5023333;28;20052;-71
2021/01/15 03:43:26;;;;;;;9.40;4.40;;;;;;;0.73;52.02;102531.75;5022959;28;20025;-71
2021/01/15 03:45:52;;;;;;;7.80;5.10;;;;;;;0.77;51.82;102531.88;5028517;28;20120;-71
2021/01/15 03:48:20;;;;;;;9.23;4.50;;;;;;;0.88;51.57;102532.13;5011653;28;20474;-71
2021/01/15 03:50:46;;;;;;;9.18;3.45;;;;;;;0.87;51.39;102535.56;5023546;28;20387;-71
2021/01/15 03:53:15;;;;;;;9.20;3.30;;;;;;;0.83;51.27;102533.72;5025765;28;20032;-71
2021/01/15 03:55:42;;;;;;;7.47;4.30;;;;;;;0.78;51.56;102535.31;5021641;28;20556;-71
2021/01/15 03:58:07;;;;;;;5.82;3.13;;;;;;;0.69;51.81;102536.78;5004081;28;20037;-71
2021/01/15 04:00:33;;;;;;;9.70;5.22;;;;;;;0.89;51.69;102533.88;5020817;28;20036;-71
2021/01/15 04:02:58;;;;;;;8.43;3.85;;;;;;;0.76;51.73;102536.97;5024035;28;20094;-73
2021/01/15 04:05:24;;;;;;;9.98;4.35;;;;;;;0.78;51.61;102535.31;5021737;28;20033;-71
2021/01/15 04:07:49;;;;;;;7.25;4.25;;;;;;;0.76;51.78;102526.66;5022185;28;20053;-72
2021/01/15 04:10:18;;;;;;;11.75;5.28;;;;;;;0.80;51.84;102531.06;5020677;28;20029;-73
2021/01/15 04:12:45;;;;;;;11.23;4.22;;;;;;;0.77;51.59;102528.41;5012280;28;20033;-71
2021/01/15 04:15:13;;;;;;;10.10;4.03;;;;;;;0.78;51.70;102531.03;5017098;28;20037;-73
2021/01/15 04:17:39;;;;;;;7.78;3.63;;;;;;;0.77;51.74;102530.97;5021521;28;20037;-73
2021/01/15 04:20:07;;;;;;;8.27;4.20;;;;;;;0.86;51.63;102538.97;5038796;28;20069;-73
2021/01/15 04:22:41;;;;;;;7.15;3.45;;;;;;;0.88;51.49;102537.28;5019958;28;20032;-73
2021/01/15 04:25:08;;;;;;;7.15;4.00;;;;;;;1.01;50.96;102538.47;5028098;28;20061;-73
2021/01/15 04:27:35;;;;;;;9.55;4.28;;;;;;;1.01;50.88;102549.66;5003393;28;20072;-73
2021/01/15 04:30:04;;;;;;;11.07;4.97;;;;;;;0.99;50.82;102551.34;5019455;28;20033;-73
2021/01/15 04:32:31;;;;;;;7.75;3.22;;;;;;;1.00;50.41;102553.06;5022074;28;20490;-73
2021/01/15 04:34:56;;;;;;;9.80;4.50;;;;;;;0.93;50.40;102551.16;5017265;28;20033;-73
2021/01/15 04:37:22;;;;;;;9.23;4.30;;;;;;;0.68;51.05;102555.66;5038500;28;20399;-73
2021/01/15 04:39:47;;;;;;;9.13;4.90;;;;;;;0.42;51.70;102561.75;5024033;28;20808;-73
2021/01/15 04:42:15;;;;;;;10.57;5.10;;;;;;;0.72;50.81;102560.88;5005835;28;20049;-72
2021/01/15 04:44:41;;;;;;;7.20;2.63;;;;;;;0.57;51.00;102566.44;5019679;28;20510;-73
2021/01/15 04:47:08;;;;;;;7.80;3.83;;;;;;;0.67;50.86;102563.31;5028291;28;20118;-73
2021/01/15 04:49:36;;;;;;;9.57;3.72;;;;;;;0.74;50.43;102564.34;5020947;28;20022;-73
2021/01/15 04:52:02;;;;;;;6.18;3.25;;;;;;;0.76;50.90;102566.13;5020900;28;20033;-73
2021/01/15 04:54:39;;;;;;;9.50;3.65;;;;;;;0.86;50.43;102564.72;5022286;28;20040;-72
2021/01/15 04:57:06;;;;;;;10.45;4.38;;;;;;;0.80;50.47;102564.53;5022151;28;20133;-73
2021/01/15 04:59:49;;;;;;;8.77;3.92;;;;;;;0.78;50.52;102567.06;5026448;28;20036;-73
2021/01/15 05:02:16;;;;;;;;;;;;;;;0.81;50.57;102556.84;5023228;28;20059;-70
2021/01/15 05:04:41;;;;;;;8.27;3.42;;;;;;;0.90;50.42;102559.69;5021749;28;20418;-71
2021/01/15 05:07:09;;;;;;;10.20;4.05;;;;;;;0.96;50.33;102560.69;5036306;28;20148;-71
2021/01/15 05:09:46;;;;;;;7.95;4.05;;;;;;;1.00;49.95;102563.38;5035693;28;20051;-71
2021/01/15 05:12:16;;;;;;;6.68;3.90;;;;;;;0.89;50.32;102569.94;5022446;28;20039;-71
2021/01/15 05:14:43;;;;;;;8.85;4.35;;;;;;;0.92;49.93;102575.16;5001980;28;20037;-72
2021/01/15 05:17:09;;;;;;;7.70;4.00;;;;;;;0.90;50.07;102569.09;5014636;28;20800;-70
2021/01/15 05:19:40;;;;;;;8.60;4.10;;;;;;;0.79;50.41;102571.41;5012868;28;20088;-71
2021/01/15 05:22:06;;;;;;;10.98;4.25;;;;;;;0.84;50.54;102579.25;5019166;28;20025;-71
2021/01/15 05:24:32;;;;;;;6.57;3.47;;;;;;;0.83;50.47;102565.47;5020291;28;20557;-70
2021/01/15 05:27:01;;;;;;;8.05;4.30;;;;;;;0.81;50.35;102574.84;5023804;28;20067;-71
2021/01/15 05:29:27;;;;;;;9.13;4.05;;;;;;;0.72;50.50;102581.44;5020074;28;20101;-72
2021/01/15 05:31:59;;;;;;;9.75;3.80;;;;;;;0.76;50.42;102588.44;5024509;28;20056;-71
2021/01/15 05:34:27;;;;;;;7.30;4.38;;;;;;;0.80;50.52;102587.69;5010106;28;20057;-71
2021/01/15 05:36:54;;;;;;;8.52;4.28;;;;;;;0.79;50.41;102591.09;5021408;28;20096;-71
2021/01/15 05:39:22;;;;;;;9.07;4.95;;;;;;;0.94;50.44;102591.53;5019178;28;20490;-71
2021/01/15 05:42:01;;;;;;;8.25;4.20;;;;;;;1.09;49.91;102591.94;5015012;28;20030;-71
2021/01/15 05:44:27;;;;;;;9.65;3.58;;;;;;;1.14;49.75;102592.06;5020483;28;20037;-71
2021/01/15 05:46:53;;;;;;;11.85;4.43;;;;;;;1.15;49.47;102603.22;5039540;28;20064;-71
2021/01/15 05:49:19;;;;;;;7.18;3.97;;;;;;;1.07;49.68;102601.31;5026368;28;20061;-72
2021/01/15 05:51:45;;;;;;;9.75;3.88;;;;;;;1.02;49.96;102605.50;5023737;28;20072;-71
2021/01/15 05:54:11;;;;;;;11.35;4.68;;;;;;;0.96;50.29;102607.03;5006997;28;20695;-71
2021/01/15 05:56:46;;;;;;;8.45;4.13;;;;;;;0.83;50.53;102611.81;5021112;28;20025;-71
2021/01/15 05:59:14;;;;;;;11.82;3.75;;;;;;;0.79;50.53;102619.41;5019713;28;20061;-71
2021/01/15 06:02:04;;;;;;;7.03;3.70;;;;;;;0.89;50.33;102613.69;5016523;28;20057;-73
2021/01/15 06:04:38;;;;;;;8.43;4.75;;;;;;;0.90;50.47;102620.56;5021582;28;20152;-71
2021/01/15 06:07:06;;;;;;;6.18;2.72;;;;;;;0.88;50.52;102624.81;5034724;28;20072;-71
2021/01/15 06:09:32;;;;;;;8.32;4.22;;;;;;;0.81;50.61;102616.03;5024423;28;20491;-71
2021/01/15 06:12:09;;;;;;;10.30;4.35;;;;;;;0.89;50.55;102619.72;5020494;28;20033;-71
2021/01/15 06:14:48;;;;;;;12.93;4.80;;;;;;;0.89;50.46;102622.28;5015064;28;20112;-71
2021/01/15 06:17:15;;;;;;;11.00;4.70;;;;;;;0.97;50.45;102619.06;5024369;28;20037;-71
2021/01/15 06:19:48;;;;;;;7.18;3.72;;;;;;;0.87;50.37;102625.66;5003210;28;20571;-71
2021/01/15 06:22:26;;;;;;;13.77;4.10;;;;;;;0.53;51.35;102636.69;5030734;28;20038;-71
2021/01/15 06:25:05;;;;;;;5.60;3.60;;;;;;;0.72;51.19;102620.94;5011223;28;20052;-71
2021/01/15 06:27:37;;;;;;;14.27;4.40;;;;;;;0.56;51.80;102632.47;5021835;28;20034;-73
2021/01/15 06:30:12;;;;;;;9.98;3.53;;;;;;;0.64;51.12;102625.88;5021987;28;20033;-71
2021/01/15 06:32:38;;;;;;;17.83;5.40;;;;;;;0.69;51.25;102629.44;5024508;28;20040;-73
2021/01/15 06:35:05;;;;;;;12.30;4.88;;;;;;;0.84;50.75;102625.56;5007225;28;20021;-72
2021/01/15 06:37:34;;;;;;;10.35;5.38;;;;;;;0.88;50.54;102627.38;5027040;28;20839;-72
2021/01/15 06:40:06;;;;;;;12.00;5.78;;;;;;;0.93;50.32;102628.41;5033645;28;20135;-72
2021/01/15 06:42:42;;;;;;;;;;;;;;;0.92;50.17;102626.66;5019435;28;20112;-71
2021/01/15 06:45:13;;;;;;;15.88;6.05;;;;;;;0.88;50.10;102632.53;5031041;28;19995;-71
2021/01/15 06:47:40;;;;;;;13.88;6.53;;;;;;;0.90;49.85;102631.78;5023222;28;20029;-71
2021/01/15 06:50:08;;;;;;;14.70;7.05;;;;;;;0.98;50.01;102631.97;5030204;28;20029;-71
2021/01/15 06:52:36;;;;;;;12.65;5.72;;;;;;;1.00;49.69;102639.75;5024391;28;20502;-71
2021/01/15 06:55:04;;;;;;;11.50;7.07;;;;;;;0.93;49.95;102638.72;5032203;28;20451;-72
2021/01/15 07:00:23;;;;;;;16.38;6.07;;;;;;;1.03;49.97;102632.09;5027266;28;20045;-72
2021/01/15 07:03:25;;;;;;;11.48;4.97;;;;;;;1.04;49.72;102626.13;5006467;28;20403;-72
2021/01/15 07:05:54;;;;;;;18.52;7.65;;;;;;;0.95;49.78;102637.06;5036709;28;20045;-72
2021/01/15 07:08:23;;;;;;;47.35;18.50;;;;;;;0.77;50.38;102639.06;5024750;28;20068;-71
2021/01/15 07:10:49;;;;;;;33.85;11.55;;;;;;;0.60;50.58;102644.59;5021746;28;20037;-71
2021/01/15 07:13:21;;;;;;;24.00;9.00;;;;;;;0.69;50.40;102639.72;5027990;28;20077;-71
2021/01/15 07:15:53;;;;;;;30.60;12.60;;;;;;;0.85;49.98;102645.31;5011113;28;20110;-72
2021/01/15 07:18:47;;;;;;;29.20;12.07;;;;;;;0.80;49.87;102641.75;5030347;28;20407;-71
2021/01/15 07:21:21;;;;;;;20.83;10.13;;;;;;;0.95;49.15;102651.59;5041849;28;20144;-71
2021/01/15 07:23:53;;;;;;;15.23;9.07;;;;;;;0.94;49.71;102658.47;5030435;28;20029;-71
2021/01/15 07:26:20;;;;;;;10.32;6.35;;;;;;;0.48;50.99;102665.72;5021623;28;20041;-71
2021/01/15 07:28:57;;;;;;;11.57;5.63;;;;;;;0.42;51.19;102668.09;5023748;28;20033;-72
2021/01/15 07:31:25;;;;;;;13.02;6.03;;;;;;;0.51;50.84;102670.06;5024998;28;20032;-71
2021/01/15 07:33:56;;;;;;;12.82;5.85;;;;;;;0.46;51.21;102680.22;5019527;28;20042;-71
2021/01/15 07:36:37;;;;;;;16.27;6.13;;;;;;;0.66;50.38;102674.81;5019303;28;20119;-71
2021/01/15 07:39:11;;;;;;;14.77;6.72;;;;;;;0.65;50.78;102686.78;5026245;28;20030;-71
2021/01/15 07:41:49;;;;;;;10.25;5.25;;;;;;;0.36;51.86;102695.31;5023098;28;20042;-71
2021/01/15 07:44:21;;;;;;;18.05;4.72;;;;;;;0.38;51.42;102693.66;5027571;28;20116;-71
2021/01/15 07:46:50;;;;;;;13.43;4.85;;;;;;;0.26;51.74;102691.59;5026686;28;20037;-71
2021/01/15 07:49:15;;;;;;;14.27;5.25;;;;;;;0.31;51.94;102687.44;5028056;28;20044;-72
2021/01/15 07:51:41;;;;;;;18.15;5.60;;;;;;;-0.09;53.02;102690.41;5019498;28;20030;-72
2021/01/15 07:54:07;;;;;;;14.82;4.97;;;;;;;0.36;51.60;102700.47;5023895;28;20034;-71
2021/01/15 07:56:33;;;;;;;13.65;5.30;;;;;;;0.37;51.74;102703.09;5021004;28;20036;-71
2021/01/15 07:58:58;;;;;;;14.52;5.50;;;;;;;0.41;51.69;102709.19;5022586;28;20113;-71
2021/01/15 08:01:25;;;;;;;11.20;5.75;;;;;;;0.21;51.76;102712.00;5016087;28;20026;-71
2021/01/15 08:03:53;;;;;;;12.23;5.22;;;;;;;0.13;52.65;102718.59;5011519;28;20041;-72
2021/01/15 08:06:19;;;;;;;14.70;6.18;;;;;;;0.19;52.45;102717.91;5018996;28;20029;-71
2021/01/15 08:09:04;;;;;;;16.08;6.57;;;;;;;0.18;52.45;102721.31;5018256;28;20040;-71
2021/01/15 08:11:32;;;;;;;9.13;5.82;;;;;;;0.20;52.19;102720.53;5040323;28;20046;-71
2021/01/15 08:14:13;;;;;;;15.80;5.97;;;;;;;0.31;51.56;102725.16;5025274;28;20104;-71
2021/01/15 08:16:40;;;;;;;13.77;6.03;;;;;;;0.15;51.41;102732.38;5026900;28;20060;-71
2021/01/15 08:19:11;;;;;;;10.07;4.25;;;;;;;-0.24;51.42;102732.75;5020748;28;20096;-71
2021/01/15 08:21:37;;;;;;;16.10;6.93;;;;;;;-0.39;51.54;102734.81;5021231;28;20101;-71
2021/01/15 08:24:04;;;;;;;11.73;6.38;;;;;;;-0.19;50.49;102733.81;5028871;28;20025;-71
2021/01/15 08:26:53;;;;;;;13.27;5.22;;;;;;;-0.43;50.52;102738.97;5023760;28;20387;-71
2021/01/15 08:29:21;;;;;;;14.90;5.07;;;;;;;-0.54;50.02;102732.56;4999751;28;20445;-71
2021/01/15 08:31:47;;;;;;;11.30;5.22;;;;;;;-0.61;49.46;102746.88;5003785;28;20038;-70
2021/01/15 08:34:14;;;;;;;11.73;5.07;;;;;;;-0.54;48.99;102747.09;5040856;28;20120;-71
2021/01/15 08:36:49;;;;;;;10.73;4.75;;;;;;;-0.45;48.28;102752.56;5023320;28;20033;-71
2021/01/15 08:39:15;;;;;;;9.05;4.60;;;;;;;-0.32;48.13;102757.31;5022004;28;20037;-71
2021/01/15 08:41:41;;;;;;;8.63;4.90;;;;;;;-0.32;48.07;102759.03;5019053;28;20036;-71
2021/01/15 08:44:09;;;;;;;8.55;4.35;;;;;;;-0.29;47.67;102759.13;5027623;28;20029;-72
2021/01/15 08:46:38;;;;;;;7.90;3.88;;;;;;;-0.29;47.59;102765.13;5020682;28;20033;-70
2021/01/15 08:49:09;;;;;;;11.32;4.25;;;;;;;-0.39;47.32;102763.06;5023674;28;20562;-72
2021/01/15 08:51:36;;;;;;;8.87;5.03;;;;;;;-0.26;46.85;102765.25;5018822;28;20029;-71
2021/01/15 08:54:04;;;;;;;7.68;3.60;;;;;;;-0.26;46.56;102770.41;5022692;28;20162;-71
2021/01/15 08:56:41;;;;;;;10.00;3.90;;;;;;;-0.11;46.20;102764.91;5019751;28;20112;-71
2021/01/15 08:59:10;;;;;;;12.23;4.40;;;;;;;0.03;45.74;102773.09;5022106;28;20044;-71
2021/01/15 09:01:38;;;;;;;8.52;5.03;;;;;;;-0.18;45.41;102774.09;5009189;28;20037;-71
2021/01/15 09:04:06;;;;;;;7.25;3.67;;;;;;;-0.25;45.23;102772.13;5020897;28;20083;-71
2021/01/15 09:06:33;;;;;;;8.57;3.95;;;;;;;-0.18;44.70;102779.25;5021238;28;20037;-71
2021/01/15 09:09:03;;;;;;;9.02;3.90;;;;;;;-0.19;44.88;102782.66;5013553;28;20128;-71
2021/01/15 09:11:34;;;;;;;7.68;3.22;;;;;;;0.01;44.54;102780.78;5023344;28;20030;-71
2021/01/15 09:14:00;;;;;;;9.38;4.40;;;;;;;-0.06;44.27;102789.06;5023769;28;20112;-72
2021/01/15 09:16:27;;;;;;;6.50;3.67;;;;;;;-0.04;44.15;102796.84;5024019;28;20030;-71
2021/01/15 09:18:55;;;;;;;7.15;3.63;;;;;;;-0.02;44.55;102795.19;5024882;28;20046;-72
2021/01/15 09:21:21;;;;;;;9.38;3.88;;;;;;;0.07;44.37;102798.94;5001843;28;20038;-71
2021/01/15 09:23:49;;;;;;;6.70;3.45;;;;;;;-0.05;44.42;102800.25;5024734;28;20529;-71
2021/01/15 09:26:18;;;;;;;8.18;3.13;;;;;;;0.05;44.04;102802.31;5022123;28;20030;-71
2021/01/15 09:28:44;;;;;;;12.65;4.22;;;;;;;0.11;43.95;102802.53;5039113;28;20060;-71
2021/01/15 09:31:10;;;;;;;9.43;3.70;;;;;;;0.09;44.02;102804.16;5024687;28;20033;-71
2021/01/15 09:33:46;;;;;;;13.88;4.60;;;;;;;0.04;43.99;102805.72;5020765;28;20034;-71
2021/01/15 09:36:25;;;;;;;8.35;3.67;;;;;;;-0.27;44.36;102814.91;5021091;28;20034;-71
2021/01/15 09:38:56;;;;;;;9.48;3.95;;;;;;;0.08;43.71;102815.28;5024299;28;20037;-71
2021/01/15 09:41:22;;;;;;;9.57;5.43;;;;;;;0.04;44.04;102818.56;5037240;28;20034;-72
2021/01/15 09:43:51;;;;;;;11.02;5.20;;;;;;;0.22;43.68;102824.34;5020700;28;20056;-71
2021/01/15 09:46:25;;;;;;;14.75;7.03;;;;;;;0.24;43.78;102835.56;5022226;28;20184;-70
2021/01/15 09:48:52;;;;;;;12.23;5.68;;;;;;;-0.28;44.65;102830.25;5036961;28;20116;-70
2021/01/15 09:51:23;;;;;;;10.85;4.60;;;;;;;-0.18;44.50;102822.06;5025443;28;20435;-72
2021/01/15 09:53:49;;;;;;;6.95;3.80;;;;;;;0.04;43.91;102829.72;5018223;28;20136;-72
2021/01/15 09:56:21;;;;;;;10.43;3.88;;;;;;;0.11;43.33;102833.38;5021792;28;20105;-71
2021/01/15 09:58:46;;;;;;;21.90;6.68;;;;;;;-0.43;45.09;102838.28;5018741;28;20052;-71
2021/01/15 10:01:12;;;;;;;15.93;6.72;;;;;;;-0.53;44.80;102841.31;5022245;28;20135;-71
2021/01/15 10:03:37;;;;;;;12.80;5.10;;;;;;;-0.20;44.02;102833.97;5006190;28;20117;-71
2021/01/15 10:06:03;;;;;;;6.47;3.60;;;;;;;0.02;43.47;102830.50;5028738;28;20025;-71
2021/01/15 10:08:28;;;;;;;8.48;4.35;;;;;;;-0.06;44.15;102844.75;5019354;28;20038;-71
2021/01/15 10:10:54;;;;;;;9.27;3.22;;;;;;;0.17;43.08;102823.31;5024480;28;20968;-71
2021/01/15 10:13:19;;;;;;;6.43;3.00;;;;;;;-0.22;44.45;102828.78;5020147;28;20375;-71
2021/01/15 10:15:45;;;;;;;7.28;3.60;;;;;;;0.46;42.03;102828.56;5002528;28;20040;-71
2021/01/15 10:18:10;;;;;;;6.88;2.22;;;;;;;0.52;41.48;102823.59;5015777;28;20030;-71
2021/01/15 10:20:42;;;;;;;5.45;2.45;;;;;;;0.54;41.22;102834.84;5024057;28;20483;-71
2021/01/15 10:23:08;;;;;;;4.75;2.78;;;;;;;0.71;40.51;102834.53;5035833;28;20026;-71
2021/01/15 10:25:34;;;;;;;5.28;3.13;;;;;;;0.78;40.68;102839.03;5016598;28;20607;-72
2021/01/15 10:27:59;;;;;;;3.55;2.17;;;;;;;0.93;39.73;102829.25;5018761;28;20116;-71
2021/01/15 10:30:25;;;;;;;8.25;3.35;;;;;;;0.97;39.68;102836.25;5019317;28;20068;-70
2021/01/15 10:32:50;;;;;;;4.25;2.22;;;;;;;1.18;39.73;102835.16;5023074;28;20048;-71
2021/01/15 10:35:16;;;;;;;3.65;1.88;;;;;;;1.23;39.06;102836.16;5019603;28;20044;-71
2021/01/15 10:37:41;;;;;;;7.35;2.78;;;;;;;0.96;39.55;102839.63;5022935;28;20107;-71
2021/01/15 10:40:08;;;;;;;3.83;1.75;;;;;;;0.99;39.83;102838.84;5021703;28;20030;-71
2021/01/15 10:42:38;;;;;;;17.10;5.90;;;;;;;0.76;40.20;102840.69;5017105;28;20029;-72
2021/01/15 10:45:05;;;;;;;4.93;2.47;;;;;;;0.62;39.87;102838.53;5029523;28;20798;-71
2021/01/15 10:47:31;;;;;;;3.65;2.40;;;;;;;1.10;39.32;102840.94;5023152;28;20044;-72
2021/01/15 10:49:56;;;;;;;8.25;3.60;;;;;;;1.00;39.45;102850.91;5018483;28;20029;-72
2021/01/15 10:52:22;;;;;;;5.10;1.52;;;;;;;0.86;39.39;102840.19;5024051;28;20087;-72
2021/01/15 10:54:47;;;;;;;12.77;4.00;;;;;;;0.57;39.55;102844.34;5035946;28;20029;-71
2021/01/15 10:57:13;;;;;;;4.38;1.70;;;;;;;0.87;39.05;102835.06;5005683;28;20044;-71
2021/01/15 10:59:38;;;;;;;6.05;1.45;;;;;;;1.10;38.47;102833.22;5016675;28;20045;-71
2021/01/15 11:02:04;;;;;;;3.45;1.48;;;;;;;0.80;38.38;102839.97;5025042;28;20084;-72
2021/01/15 11:04:29;;;;;;;3.00;1.25;;;;;;;1.00;38.33;102841.47;5016860;28;20033;-71
2021/01/15 11:06:55;;;;;;;2.72;1.02;;;;;;;0.41;38.40;102837.81;5038772;28;20037;-71
2021/01/15 11:09:22;;;;;;;2.33;0.75;;;;;;;0.38;38.20;102845.44;5017002;28;20148;-71
2021/01/15 11:11:52;;;;;;;1.48;0.60;;;;;;;0.39;37.14;102839.47;5022220;28;20029;-71
2021/01/15 11:14:19;;;;;;;1.88;0.52;;;;;;;0.67;37.12;102836.97;5020343;28;20057;-72
2021/01/15 11:16:45;;;;;;;1.65;0.68;;;;;;;0.21;37.66;102840.59;5023872;28;20046;-71
2021/01/15 11:19:11;;;;;;;1.48;0.55;;;;;;;0.45;37.29;102840.53;5019859;28;20022;-72
2021/01/15 11:21:37;;;;;;;1.88;0.57;;;;;;;0.27;38.25;102845.94;5013631;28;20037;-71
2021/01/15 11:24:03;;;;;;;2.47;0.50;;;;;;;0.25;37.48;102841.56;5019705;28;20795;-71
2021/01/15 11:26:31;;;;;;;2.05;0.77;;;;;;;0.41;38.05;102837.81;5037944;28;20479;-71
2021/01/15 11:28:59;;;;;;;2.38;1.10;;;;;;;0.46;37.67;102841.44;5007799;28;20037;-71
2021/01/15 11:31:25;;;;;;;2.53;0.77;;;;;;;0.65;37.99;102843.78;5038723;28;20036;-72
2021/01/15 11:33:52;;;;;;;1.40;0.50;;;;;;;0.94;37.23;102835.25;5013096;28;20048;-73
2021/01/15 11:36:18;;;;;;;6.03;0.98;;;;;;;0.83;37.38;102837.47;5024740;28;20168;-71
2021/01/15 11:38:45;;;;;;;1.27;0.32;;;;;;;0.45;37.76;102847.38;5017116;28;20058;-71
2021/01/15 11:41:15;;;;;;;1.88;0.77;;;;;;;0.46;38.12;102837.16;5018925;28;20040;-72